Aérodrome :
LOGIN :

S'inscrire | Disclaimer

   EN    FR    IT 

 










Légende :    VFR   VFR Marginal   IFR   IFR Intensif   IFR Très Intensif
Visi : 
Plafond : 
>= 8 km
>= 3000ft
5 à 8 km
1000 à 3000 ft
1500m à 5 km
500 à 1000 ft
800 à 1500m
200 à 500 ft
< 800m
< 200 ft
Symboles :   Orages  Brouillard  Fortes neiges  Fortes précipitations  Vent > 20 kt
SIGMETs :   Divers  Orages  Givrage  Turbulence  Onde Orograph.  Cendres Volcan.






- Altitude de l'aérodrome : 1487 ft
- Code IATA : MUC


EDDM - München Franz Josef Strauss

DERNIER METAR :
  • 282150Z VRB02KT 9999 -SHRA FEW040 10/05 Q1028 NOSIG

METARs EXPIRÉS :
  • 282120Z 05004KT CAVOK 10/04 Q1028 NOSIG
  • 282050Z 05003KT 020V080 CAVOK 10/04 Q1028 NOSIG
  • 282020Z 08004KT 050V120 CAVOK 10/04 Q1028 NOSIG
  • 281950Z 06003KT 020V090 CAVOK 10/04 Q1028 NOSIG
  • 281920Z 05006KT 020V090 9999 FEW040CB 11/04 Q1028 NOSIG

TAF AMD TAF EDDM
Valide du 28 à 18h jusqu'au 30 à 00h UTC


281814Z 2818/2924 05015G30KT 9999 FEW040
BECMG 2819/2821 04007KT
BECMG 2821/2823 VRB03KT
BECMG 2906/2908 06007KT



MET'MAP, la Météo Aéronautique d'un coup d'oeil ! - Copyright ORBIFLY Décembre 2007 - Disclaimer

ORBIFLY MET'MAP TEAM :

Programmation & Développement : Alexandra Zaïnal
Sur une idée originale de : Baudouin d'Aumeries
Assistance à la programmation : Marc-Olivier Méhu
Soutien technique & logistique : Manuel Goepfert

Contact : metmap@orbifly.com




SOURCES & CREDITS :

   NOAA